sensor_id;sensor_type;location;lat;lon;timestamp;pressure;altitude;pressure_sealevel;temperature;humidity
51530;BME280;37613;51.788;21.582;2024-03-08T00:03:00;100988.05;;;-4.32;85.18
51530;BME280;37613;51.788;21.582;2024-03-08T00:07:06;100984.55;;;-4.34;85.31
51530;BME280;37613;51.788;21.582;2024-03-08T00:11:09;100982.17;;;-4.37;85.40
51530;BME280;37613;51.788;21.582;2024-03-08T06:29:29;100886.83;;;2.23;91.99
51530;BME280;37613;51.788;21.582;2024-03-08T06:33:31;100886.67;;;2.48;91.69
51530;BME280;37613;51.788;21.582;2024-03-08T06:37:39;100884.16;;;2.71;91.42
51530;BME280;37613;51.788;21.582;2024-03-08T06:41:41;100884.08;;;3.09;91.45
51530;BME280;37613;51.788;21.582;2024-03-08T06:45:47;100885.25;;;3.59;91.38
51530;BME280;37613;51.788;21.582;2024-03-08T06:49:52;100888.02;;;4.01;90.38
51530;BME280;37613;51.788;21.582;2024-03-08T06:53:54;100889.13;;;4.40;90.18
51530;BME280;37613;51.788;21.582;2024-03-08T06:57:57;100886.61;;;4.51;90.98
51530;BME280;37613;51.788;21.582;2024-03-08T07:01:59;100882.27;;;4.43;91.25
51530;BME280;37613;51.788;21.582;2024-03-08T07:06:02;100883.24;;;4.22;91.03
51530;BME280;37613;51.788;21.582;2024-03-08T07:10:04;100882.45;;;4.02;90.90
51530;BME280;37613;51.788;21.582;2024-03-08T07:14:09;100884.83;;;3.74;90.67
51530;BME280;37613;51.788;21.582;2024-03-08T07:18:11;100879.70;;;3.55;90.65
51530;BME280;37613;51.788;21.582;2024-03-08T07:22:17;100874.73;;;3.43;90.82
51530;BME280;37613;51.788;21.582;2024-03-08T07:26:20;100870.41;;;3.33;90.38
51530;BME280;37613;51.788;21.582;2024-03-08T07:30:26;100867.79;;;3.31;90.72
51530;BME280;37613;51.788;21.582;2024-03-08T07:34:48;100867.69;;;3.37;90.94
51530;BME280;37613;51.788;21.582;2024-03-08T07:44:08;100870.88;;;3.43;90.53
51530;BME280;37613;51.788;21.582;2024-03-08T07:48:26;100876.40;;;3.50;91.06
51530;BME280;37613;51.788;21.582;2024-03-08T07:52:49;100875.63;;;3.72;91.84
51530;BME280;37613;51.788;21.582;2024-03-08T07:56:51;100875.33;;;3.96;90.98
51530;BME280;37613;51.788;21.582;2024-03-08T08:00:54;100871.90;;;3.96;90.46
51530;BME280;37613;51.788;21.582;2024-03-08T08:04:58;100873.85;;;3.94;90.08
51530;BME280;37613;51.788;21.582;2024-03-08T08:09:01;100876.61;;;3.99;90.43
51530;BME280;37613;51.788;21.582;2024-03-08T08:13:03;100876.72;;;3.98;89.94
51530;BME280;37613;51.788;21.582;2024-03-08T08:17:08;100874.55;;;3.95;90.06
51530;BME280;37613;51.788;21.582;2024-03-08T08:21:10;100870.86;;;3.98;90.47
51530;BME280;37613;51.788;21.582;2024-03-08T08:25:13;100869.48;;;4.03;90.46
51530;BME280;37613;51.788;21.582;2024-03-08T08:29:15;100866.86;;;4.12;90.54
51530;BME280;37613;51.788;21.582;2024-03-08T08:33:17;100865.30;;;4.14;90.21
51530;BME280;37613;51.788;21.582;2024-03-08T08:37:20;100862.75;;;4.22;90.27
51530;BME280;37613;51.788;21.582;2024-03-08T08:41:22;100861.41;;;4.33;90.23
51530;BME280;37613;51.788;21.582;2024-03-08T08:45:24;100857.09;;;4.53;89.88
51530;BME280;37613;51.788;21.582;2024-03-08T08:49:26;100855.66;;;4.70;90.29
51530;BME280;37613;51.788;21.582;2024-03-08T08:53:28;100853.23;;;4.83;88.54
51530;BME280;37613;51.788;21.582;2024-03-08T08:57:31;100846.64;;;4.91;89.12
51530;BME280;37613;51.788;21.582;2024-03-08T09:01:34;100840.86;;;5.11;89.35
51530;BME280;37613;51.788;21.582;2024-03-08T09:05:37;100837.31;;;5.33;89.27
51530;BME280;37613;51.788;21.582;2024-03-08T09:09:39;100837.27;;;5.47;88.83
51530;BME280;37613;51.788;21.582;2024-03-08T09:13:44;100838.98;;;5.64;87.33
51530;BME280;37613;51.788;21.582;2024-03-08T09:17:48;100837.34;;;5.81;87.66
51530;BME280;37613;51.788;21.582;2024-03-08T09:21:50;100836.42;;;5.95;86.87
51530;BME280;37613;51.788;21.582;2024-03-08T09:25:53;100833.08;;;5.99;83.54
51530;BME280;37613;51.788;21.582;2024-03-08T09:29:55;100833.98;;;6.02;82.62
51530;BME280;37613;51.788;21.582;2024-03-08T09:33:57;100830.43;;;6.05;82.66
51530;BME280;37613;51.788;21.582;2024-03-08T09:38:02;100825.98;;;6.12;82.30
51530;BME280;37613;51.788;21.582;2024-03-08T09:42:06;100821.86;;;6.19;81.07
51530;BME280;37613;51.788;21.582;2024-03-08T09:46:08;100815.91;;;6.19;78.90
51530;BME280;37613;51.788;21.582;2024-03-08T09:50:12;100814.05;;;6.23;79.29
51530;BME280;37613;51.788;21.582;2024-03-08T09:54:14;100814.92;;;6.35;78.96
51530;BME280;37613;51.788;21.582;2024-03-08T09:58:18;100811.61;;;6.38;78.03
51530;BME280;37613;51.788;21.582;2024-03-08T10:02:36;100804.92;;;6.49;80.04
51530;BME280;37613;51.788;21.582;2024-03-08T10:06:39;100804.85;;;6.64;79.21
51530;BME280;37613;51.788;21.582;2024-03-08T10:10:42;100802.48;;;6.74;79.13
51530;BME280;37613;51.788;21.582;2024-03-08T10:14:45;100799.67;;;6.91;79.54
51530;BME280;37613;51.788;21.582;2024-03-08T10:18:48;100797.77;;;6.92;74.91
51530;BME280;37613;51.788;21.582;2024-03-08T10:22:50;100796.45;;;6.93;74.48
51530;BME280;37613;51.788;21.582;2024-03-08T10:27:00;100794.17;;;6.93;74.94
51530;BME280;37613;51.788;21.582;2024-03-08T10:31:06;100786.52;;;6.96;75.50
51530;BME280;37613;51.788;21.582;2024-03-08T10:43:19;100783.98;;;7.16;72.08
51530;BME280;37613;51.788;21.582;2024-03-08T10:47:27;100788.02;;;7.13;71.30
51530;BME280;37613;51.788;21.582;2024-03-08T10:51:34;100784.52;;;7.12;68.52
51530;BME280;37613;51.788;21.582;2024-03-08T10:55:40;100779.45;;;7.03;67.31
51530;BME280;37613;51.788;21.582;2024-03-08T10:59:43;100777.27;;;7.07;68.75
51530;BME280;37613;51.788;21.582;2024-03-08T11:03:46;100771.84;;;7.27;69.71
51530;BME280;37613;51.788;21.582;2024-03-08T11:07:50;100772.52;;;7.45;70.26
51530;BME280;37613;51.788;21.582;2024-03-08T11:20:27;100770.60;;;7.74;66.60
51530;BME280;37613;51.788;21.582;2024-03-08T11:24:39;100761.16;;;7.70;66.32
51530;BME280;37613;51.788;21.582;2024-03-08T11:28:41;100756.77;;;7.67;64.56
51530;BME280;37613;51.788;21.582;2024-03-08T11:32:46;100759.46;;;7.60;64.56
51530;BME280;37613;51.788;21.582;2024-03-08T11:36:53;100755.55;;;7.57;64.63
51530;BME280;37613;51.788;21.582;2024-03-08T11:40:57;100749.92;;;7.59;65.46
51530;BME280;37613;51.788;21.582;2024-03-08T11:45:00;100744.16;;;7.61;66.50
51530;BME280;37613;51.788;21.582;2024-03-08T11:49:02;100738.30;;;7.59;63.30
51530;BME280;37613;51.788;21.582;2024-03-08T11:53:06;100735.38;;;7.55;64.44
51530;BME280;37613;51.788;21.582;2024-03-08T11:57:09;100728.27;;;7.58;64.33
51530;BME280;37613;51.788;21.582;2024-03-08T12:01:14;100727.17;;;7.62;62.87
51530;BME280;37613;51.788;21.582;2024-03-08T12:05:19;100719.33;;;7.59;63.13
51530;BME280;37613;51.788;21.582;2024-03-08T12:09:21;100719.67;;;7.65;61.82
51530;BME280;37613;51.788;21.582;2024-03-08T12:13:26;100715.48;;;7.59;61.42
51530;BME280;37613;51.788;21.582;2024-03-08T12:17:31;100713.55;;;7.54;61.34
51530;BME280;37613;51.788;21.582;2024-03-08T12:21:35;100708.54;;;7.50;63.42
51530;BME280;37613;51.788;21.582;2024-03-08T12:25:37;100701.42;;;7.52;62.78
51530;BME280;37613;51.788;21.582;2024-03-08T12:29:40;100695.70;;;7.54;62.70
51530;BME280;37613;51.788;21.582;2024-03-08T12:33:53;100690.22;;;7.63;62.73
51530;BME280;37613;51.788;21.582;2024-03-08T12:37:57;100687.42;;;7.65;61.80
51530;BME280;37613;51.788;21.582;2024-03-08T12:42:00;100683.95;;;7.64;62.00
51530;BME280;37613;51.788;21.582;2024-03-08T12:46:02;100681.75;;;7.69;62.62
51530;BME280;37613;51.788;21.582;2024-03-08T12:50:09;100675.56;;;7.74;62.59
51530;BME280;37613;51.788;21.582;2024-03-08T12:54:12;100676.21;;;7.85;62.28
51530;BME280;37613;51.788;21.582;2024-03-08T12:58:14;100671.64;;;7.92;62.93
51530;BME280;37613;51.788;21.582;2024-03-08T13:02:18;100666.87;;;7.94;63.16
51530;BME280;37613;51.788;21.582;2024-03-08T13:06:20;100663.70;;;7.93;62.51
51530;BME280;37613;51.788;21.582;2024-03-08T13:10:26;100660.77;;;7.95;62.13
51530;BME280;37613;51.788;21.582;2024-03-08T13:14:28;100656.03;;;7.95;62.36
51530;BME280;37613;51.788;21.582;2024-03-08T13:18:36;100648.61;;;7.89;60.84
51530;BME280;37613;51.788;21.582;2024-03-08T13:22:39;100642.45;;;7.79;59.32
51530;BME280;37613;51.788;21.582;2024-03-08T13:26:41;100637.92;;;7.73;59.62
51530;BME280;37613;51.788;21.582;2024-03-08T13:30:44;100632.89;;;7.65;57.03
51530;BME280;37613;51.788;21.582;2024-03-08T13:34:47;100628.69;;;7.55;56.94
51530;BME280;37613;51.788;21.582;2024-03-08T13:38:49;100628.52;;;7.54;57.97
51530;BME280;37613;51.788;21.582;2024-03-08T13:42:51;100623.91;;;7.55;58.55
51530;BME280;37613;51.788;21.582;2024-03-08T13:46:53;100620.52;;;7.50;55.62
51530;BME280;37613;51.788;21.582;2024-03-08T13:51:00;100618.00;;;7.50;57.22
51530;BME280;37613;51.788;21.582;2024-03-08T13:55:02;100615.89;;;7.52;56.69
51530;BME280;37613;51.788;21.582;2024-03-08T13:59:04;100614.27;;;7.53;57.13
51530;BME280;37613;51.788;21.582;2024-03-08T14:03:06;100609.83;;;7.55;57.37
51530;BME280;37613;51.788;21.582;2024-03-08T14:07:08;100607.36;;;7.54;57.33
51530;BME280;37613;51.788;21.582;2024-03-08T14:11:12;100607.58;;;7.53;56.82
51530;BME280;37613;51.788;21.582;2024-03-08T14:15:15;100603.70;;;7.51;57.10
51530;BME280;37613;51.788;21.582;2024-03-08T14:19:19;100603.13;;;7.50;57.55
51530;BME280;37613;51.788;21.582;2024-03-08T14:23:21;100597.61;;;7.49;56.73
51530;BME280;37613;51.788;21.582;2024-03-08T14:27:24;100594.71;;;7.42;55.27
51530;BME280;37613;51.788;21.582;2024-03-08T14:31:26;100593.69;;;7.38;56.35
51530;BME280;37613;51.788;21.582;2024-03-08T14:35:29;100591.23;;;7.37;56.47
51530;BME280;37613;51.788;21.582;2024-03-08T14:39:31;100591.29;;;7.36;56.90
51530;BME280;37613;51.788;21.582;2024-03-08T14:43:35;100586.89;;;7.36;57.21
51530;BME280;37613;51.788;21.582;2024-03-08T14:47:37;100581.83;;;7.33;57.17
51530;BME280;37613;51.788;21.582;2024-03-08T14:51:39;100574.84;;;7.31;57.26
51530;BME280;37613;51.788;21.582;2024-03-08T14:55:42;100569.99;;;7.28;57.46
51530;BME280;37613;51.788;21.582;2024-03-08T14:59:45;100569.04;;;7.23;57.17
51530;BME280;37613;51.788;21.582;2024-03-08T15:03:48;100566.09;;;7.18;56.63
51530;BME280;37613;51.788;21.582;2024-03-08T15:07:52;100563.16;;;7.12;57.14
51530;BME280;37613;51.788;21.582;2024-03-08T15:11:55;100564.01;;;7.07;57.37
51530;BME280;37613;51.788;21.582;2024-03-08T15:15:59;100566.38;;;7.04;57.50
51530;BME280;37613;51.788;21.582;2024-03-08T15:20:01;100558.70;;;6.97;57.18
51530;BME280;37613;51.788;21.582;2024-03-08T15:24:05;100558.80;;;6.94;57.35
51530;BME280;37613;51.788;21.582;2024-03-08T15:28:11;100558.59;;;6.87;56.92
51530;BME280;37613;51.788;21.582;2024-03-08T15:32:17;100555.73;;;6.79;56.88
51530;BME280;37613;51.788;21.582;2024-03-08T15:36:23;100554.83;;;6.73;56.90
51530;BME280;37613;51.788;21.582;2024-03-08T15:40:33;100554.63;;;6.67;56.36
51530;BME280;37613;51.788;21.582;2024-03-08T15:44:38;100554.31;;;6.60;56.40
51530;BME280;37613;51.788;21.582;2024-03-08T15:48:42;100550.15;;;6.52;56.86
51530;BME280;37613;51.788;21.582;2024-03-08T15:52:44;100550.92;;;6.45;57.11
51530;BME280;37613;51.788;21.582;2024-03-08T15:56:49;100550.43;;;6.26;57.51
51530;BME280;37613;51.788;21.582;2024-03-08T16:00:51;100547.38;;;6.03;57.72
